Latest Coastal Weather Observations for Portland Harbour

IDV60701

Issued at 8:01 am EST Sunday 22 September 2019 (issued every 10 minutes, with the page automatically refreshed every 10 minutes)

About coastal observations | Map of coastal stations | Coastal observations for VIC | Marine services | Other Formats
Station Details ID: 090192 Name: PORTLAND NTC AWS Lat: -38.34 Lon: 141.61 Height: 0.0 m
Data from the previous 72 hours. | See also: Recent months for locations in Victoria
Date/Time
EST
Wind Sea
Height
m
Swell Vis
km
Cloud Weather Temp
°C
Press
hPa
Rain since
9am
mm
Dir  Spd
kts
Gust
kts
Height
m
Period
s
Dir
22/08:00am NW 7 10 - - - - - - - 7.3 1021.0 -
22/07:30am NNW 11 15 - - - - - - - 6.3 1020.9 -
22/07:00am NW 7 12 - - - - - - - 5.8 1020.8 -
22/06:30am NW 6 10 - - - - - - - 5.6 1020.4 -
22/06:00am NW 7 12 - - - - - - - 6.1 1019.9 -
22/05:30am NW 9 13 - - - - - - - 6.3 1019.6 -
22/05:00am NNW 7 10 - - - - - - - 6.7 1019.4 -
22/04:30am NNW 8 13 - - - - - - - 7.1 1019.4 -
22/04:00am NW 7 11 - - - - - - - 7.0 1019.2 -
22/03:30am WNW 5 7 - - - - - - - 6.9 1019.3 -
22/03:00am NW 7 11 - - - - - - - 6.9 1019.2 -
22/02:30am NW 5 8 - - - - - - - 7.0 1019.2 -
22/02:00am NW 8 11 - - - - - - - 7.2 1019.3 -
22/01:30am NNW 7 11 - - - - - - - 7.5 1019.3 -
22/01:00am WNW 11 17 - - - - - - - 7.5 1019.7 -
22/12:30am NW 7 10 - - - - - - - 8.0 1019.3 -
22/12:00am NNW 5 7 - - - - - - - 8.5 1019.1 -
 
Date/Time
EST
Wind Sea
Height
m
Swell Vis
km
Cloud Weather Temp
°C
Press
hPa
Rain since
9am
mm
Dir  Spd
kts
Gust
kts
Height
m
Period
s
Dir
21/11:30pm W 4 6 - - - - - - - 8.4 1019.2 -
21/11:00pm WNW 7 9 - - - - - - - 9.0 1019.0 -
21/10:30pm WNW 6 10 - - - - - - - 8.8 1018.9 -
21/10:00pm NW 5 7 - - - - - - - 8.6 1018.8 -
21/09:30pm NW 5 7 - - - - - - - 9.1 1018.7 -
21/09:00pm WNW 5 7 - - - - - - - 9.4 1018.4 -
21/08:30pm WSW 6 8 - - - - - - - 9.7 1018.2 -
21/08:00pm W 5 9 - - - - - - - 9.6 1017.9 -
21/07:30pm W 5 7 - - - - - - - 9.3 1017.4 -
21/07:00pm WNW 4 6 - - - - - - - 8.8 1017.1 -
21/06:30pm W 5 7 - - - - - - - 8.8 1016.5 -
21/06:06pm WSW 15 26 - - - - - - - 8.7 1016.5 -
21/06:00pm WSW 9 15 - - - - - - - 11.1 1016.2 -
21/05:30pm WSW 8 12 - - - - - - - 11.3 1015.4 -
21/05:00pm WSW 12 19 - - - - - - - 10.9 1015.0 -
21/04:30pm SW 11 19 - - - - - - - 11.2 1014.4 -
21/04:00pm SW 13 21 - - - - - - - 10.3 1014.0 -
21/03:30pm WSW 10 17 - - - - - - - 11.2 1013.2 -
21/03:00pm W 10 15 - - - - - - - 10.5 1012.8 -
21/02:30pm SW 15 24 - - - - - - - 9.8 1012.6 -
21/02:00pm WSW 12 18 - - - - - - - 11.8 1011.9 -
21/01:30pm WSW 12 18 - - - - - - - 11.3 1011.6 -
21/01:00pm SW 11 17 - - - - - - - 10.6 1011.3 -
21/12:30pm SW 19 26 - - - - - - - 10.6 1011.0 -
21/12:00pm SW 18 27 - - - - - - - 11.0 1010.5 -
21/11:30am SW 18 27 - - - - - - - 10.4 1010.1 -
21/11:01am SW 18 30 - - - - - - - 10.0 1009.1 -
21/11:00am SW 17 27 - - - - - - - 10.4 1009.1 -
21/10:30am SSW 20 28 - - - - - - - 9.8 1008.5 -
21/10:12am NNW 10 35 - - - - - - - 10.4 1008.0 -
21/10:00am N 3 4 - - - - - - - 11.7 1008.0 -
21/09:30am N 2 3 - - - - - - - 11.7 1008.2 -
21/09:00am SW 1 2 - - - - - - - 11.6 1007.9 -
21/08:30am NW 3 5 - - - - - - - 11.7 1008.1 -
21/08:00am W 3 5 - - - - - - - 11.8 1007.8 -
21/07:30am SE 1 4 - - - - - - - 11.9 1007.7 -
21/07:00am SE 6 8 - - - - - - - 12.2 1007.4 -
21/06:30am ESE 9 11 - - - - - - - 12.4 1007.0 -
21/06:00am SE 10 12 - - - - - - - 12.4 1006.5 -
21/05:30am SSE 5 7 - - - - - - - 12.4 1007.3 -
21/05:00am SSE 6 9 - - - - - - - 12.4 1007.8 -
21/04:30am SSE 7 10 - - - - - - - 12.5 1007.6 -
21/04:00am S 5 7 - - - - - - - 12.3 1008.2 -
21/03:30am SSE 3 8 - - - - - - - 12.3 1009.1 -
21/03:00am S 8 11 - - - - - - - 12.3 1008.7 -
21/02:30am S 11 16 - - - - - - - 12.5 1008.6 -
21/02:00am S 12 17 - - - - - - - 12.8 1009.7 -
21/01:30am S 11 15 - - - - - - - 12.9 1009.5 -
21/01:00am S 12 18 - - - - - - - 13.0 1009.4 -
21/12:30am S 14 19 - - - - - - - 13.1 1009.5 -
21/12:00am S 12 19 - - - - - - - 13.4 1009.7 -
 
Date/Time
EST
Wind Sea
Height
m
Swell Vis
km
Cloud Weather Temp
°C
Press
hPa
Rain since
9am
mm
Dir  Spd
kts
Gust
kts
Height
m
Period
s
Dir
20/11:30pm S 13 18 - - - - - - - 13.6 1010.3 -
20/11:00pm SSW 9 15 - - - - - - - 13.8 1011.5 -
20/10:30pm SSW 11 15 - - - - - - - 13.9 1011.5 -
20/10:00pm SW 8 11 - - - - - - - 14.1 1011.6 -
20/09:30pm SSW 5 6 - - - - - - - 14.2 1011.8 -
20/09:00pm S 7 9 - - - - - - - 14.3 1011.7 -
20/08:30pm SSW 7 9 - - - - - - - 14.5 1011.9 -
20/08:00pm SSW 7 11 - - - - - - - 14.6 1011.8 -
20/07:30pm SSW 9 13 - - - - - - - 14.9 1011.2 -
20/07:00pm SSW 8 12 - - - - - - - 15.2 1011.2 -
20/06:30pm SW 9 10 - - - - - - - 15.7 1011.6 -
20/06:00pm SSW 8 13 - - - - - - - 16.9 1011.9 -
20/05:30pm WSW 9 13 - - - - - - - 18.1 1011.5 -
20/05:00pm SW 11 18 - - - - - - - 17.8 1011.3 -
20/04:30pm S 5 6 - - - - - - - 19.3 1010.9 -
20/04:00pm SSE 6 7 - - - - - - - 19.0 1011.1 -
20/03:30pm ESE 5 5 - - - - - - - 19.4 1010.7 -
20/03:00pm SE 8 9 - - - - - - - 18.8 1011.1 -
20/02:30pm S 2 4 - - - - - - - 21.2 1011.3 -
20/02:00pm SE 8 9 - - - - - - - 18.5 1011.4 -
20/01:30pm ENE 7 7 - - - - - - - 18.6 1012.0 -
20/01:00pm NNE 6 7 - - - - - - - 19.7 1012.5 -
20/12:30pm N 2 7 - - - - - - - 19.3 1012.6 -
20/12:00pm NNW 5 9 - - - - - - - 19.7 1013.1 -
20/11:30am N 7 10 - - - - - - - 19.2 1013.2 -
20/11:00am NNW 11 17 - - - - - - - 19.0 1013.4 -
20/10:30am N 11 14 - - - - - - - 18.4 1013.5 -
20/10:00am N 11 12 - - - - - - - 17.3 1013.6 -
20/09:30am NNW 10 15 - - - - - - - 19.0 1013.4 -
20/09:00am NNW 10 15 - - - - - - - 18.9 1013.2 -
20/08:30am NNW 11 16 - - - - - - - 19.5 1012.7 -
20/08:00am NNW 11 15 - - - - - - - 19.3 1012.1 -
20/07:30am NNW 15 19 - - - - - - - 19.0 1011.9 -
20/07:00am N 14 17 - - - - - - - 19.0 1011.3 -
20/06:30am N 17 23 - - - - - - - 20.0 1011.0 -
20/06:00am N 19 23 - - - - - - - 20.5 1010.6 -
20/05:30am N 20 25 - - - - - - - 20.3 1010.0 -
20/05:00am N 18 25 - - - - - - - 19.6 1009.5 -
20/04:30am N 21 27 - - - - - - - 20.7 1009.4 -
20/04:00am N 21 30 - - - - - - - 20.5 1009.1 -
20/03:30am N 20 25 - - - - - - - 19.7 1008.9 -
20/03:00am N 24 30 - - - - - - - 20.8 1009.1 -
20/02:30am N 24 29 - - - - - - - 20.6 1009.1 -
20/02:11am N 24 34 - - - - - - - 21.4 1009.4 -
20/02:00am N 23 30 - - - - - - - 20.5 1009.5 -
20/01:30am N 22 30 - - - - - - - 20.4 1009.6 -
20/01:00am N 23 29 - - - - - - - 21.0 1009.7 -
20/12:30am N 20 25 - - - - - - - 20.8 1009.8 -
20/12:00am N 23 31 - - - - - - - 21.0 1009.7 -
 
Date/Time
EST
Wind Sea
Height
m
Swell Vis
km
Cloud Weather Temp
°C
Press
hPa
Rain since
9am
mm
Dir  Spd
kts
Gust
kts
Height
m
Period
s
Dir
19/11:30pm N 23 29 - - - - - - - 21.6 1009.6 -
19/11:00pm N 25 32 - - - - - - - 21.8 1009.7 -
19/10:30pm N 25 33 - - - - - - - 21.6 1009.6 -
19/10:00pm N 25 32 - - - - - - - 21.2 1009.5 -
19/09:30pm N 24 32 - - - - - - - 21.2 1009.4 -
19/09:00pm N 25 32 - - - - - - - 21.3 1009.6 -
19/08:38pm N 24 35 - - - - - - - 21.3 1009.4 -
19/08:30pm N 23 29 - - - - - - - 20.6 1009.4 -
19/08:00pm N 21 27 - - - - - - - 21.3 1009.3 -
19/07:30pm N 18 25 - - - - - - - 21.1 1009.5 -
19/07:00pm N 18 25 - - - - - - - 20.7 1009.4 -
19/06:30pm N 20 27 - - - - - - - 20.9 1009.3 -
19/06:00pm N 20 28 - - - - - - - 21.6 1009.1 -
19/05:34pm N 26 36 - - - - - - - 21.1 1008.6 -
19/05:30pm N 28 36 - - - - - - - 21.7 1008.5 -
19/05:28pm N 28 38 - - - - - - - 20.8 1008.5 -
19/05:00pm N 28 36 - - - - - - - 21.4 1008.0 -
19/04:30pm N 32 44 - - - - - - - 21.7 1008.1 -
19/04:00pm N 29 41 - - - - - - - 20.9 1008.5 -
19/03:30pm N 29 41 - - - - - - - 21.1 1008.9 -
19/03:28pm N 30 41 - - - - - - - 20.3 1008.9 -
19/03:00pm N 28 37 - - - - - - - 20.8 1009.1 -
19/02:39pm N 25 36 - - - - - - - 20.2 1009.2 -
19/02:30pm N 25 33 - - - - - - - 20.0 1009.3 -
19/02:00pm N 30 40 - - - - - - - 20.2 1009.6 -
19/01:57pm N 29 40 - - - - - - - 20.8 1009.5 -
19/01:30pm N 29 38 - - - - - - - 19.5 1010.1 -
19/01:09pm N 29 41 - - - - - - - 19.5 1010.4 -
19/01:00pm N 30 40 - - - - - - - 19.4 1010.7 -
19/12:47pm N 31 41 - - - - - - - 19.4 1011.0 -
19/12:30pm N 29 37 - - - - - - - 19.4 1011.4 -
19/12:02pm N 28 44 - - - - - - - 18.6 1011.7 -
19/12:00pm N 28 36 - - - - - - - 18.3 1011.7 -
19/11:42am N 30 43 - - - - - - - 18.6 1012.2 -
19/11:30am N 29 37 - - - - - - - 18.2 1012.6 -
19/11:03am N 31 41 - - - - - - - 18.4 1013.2 -
19/11:00am N 30 39 - - - - - - - 18.3 1013.3 -
19/10:39am NNE 25 35 - - - - - - - 18.2 1013.9 -
19/10:30am NNE 26 33 - - - - - - - 18.0 1014.4 -
19/10:14am NNE 19 29 - - - - - - - 17.8 1014.9 -
19/10:00am NNE 21 27 - - - - - - - 17.0 1015.1 -
19/09:49am NNE 18 29 - - - - - - - 16.9 1015.3 -
19/09:30am NNE 20 25 - - - - - - - 16.7 1015.6 -
19/09:00am NNE 15 19 - - - - - - - 15.6 1016.0 -
19/08:30am NNE 13 17 - - - - - - - 15.1 1016.6 -

Other formats

Comma delimited format used in spreadsheet applications
http://www.bom.gov.au/fwo/IDV60701/IDV60701.95826.axf

JavaScript Object Notation format (JSON) in row-major order
http://www.bom.gov.au/fwo/IDV60701/IDV60701.95826.json

Data quality

Most of these data are generated automatically and are frequently updated. Quality checks on data are not normally performed. It is possible for incorrect values to appear. Refer to information at About Latest Weather Observations and please check the disclaimer before using these data.